sensor_id;sensor_type;location;lat;lon;timestamp;temperature;humidity
45409;DHT22;31162;51.076;3.784;2023-12-20T00:01:05;6.80;99.90
45409;DHT22;31162;51.076;3.784;2023-12-20T00:03:31;6.80;99.90
45409;DHT22;31162;51.076;3.784;2023-12-20T00:05:57;6.70;99.90
45409;DHT22;31162;51.076;3.784;2023-12-20T00:08:22;6.70;99.90
45409;DHT22;31162;51.076;3.784;2023-12-20T00:10:48;6.60;99.90
45409;DHT22;31162;51.076;3.784;2023-12-20T00:13:13;6.60;99.90
45409;DHT22;31162;51.076;3.784;2023-12-20T00:15:39;6.60;99.90
45409;DHT22;31162;51.076;3.784;2023-12-20T00:18:05;6.60;99.90
45409;DHT22;31162;51.076;3.784;2023-12-20T00:20:30;6.50;99.90
45409;DHT22;31162;51.076;3.784;2023-12-20T00:22:57;6.40;99.90
45409;DHT22;31162;51.076;3.784;2023-12-20T00:25:23;6.40;99.90
45409;DHT22;31162;51.076;3.784;2023-12-20T00:27:49;6.40;99.90
45409;DHT22;31162;51.076;3.784;2023-12-20T00:30:15;6.40;99.90
45409;DHT22;31162;51.076;3.784;2023-12-20T00:32:40;6.40;99.90
45409;DHT22;31162;51.076;3.784;2023-12-20T00:35:15;6.40;99.90
45409;DHT22;31162;51.076;3.784;2023-12-20T00:37:44;6.40;99.90
45409;DHT22;31162;51.076;3.784;2023-12-20T00:40:11;6.40;99.90
45409;DHT22;31162;51.076;3.784;2023-12-20T00:42:36;6.30;99.90
45409;DHT22;31162;51.076;3.784;2023-12-20T00:45:02;6.30;99.90
45409;DHT22;31162;51.076;3.784;2023-12-20T00:47:30;6.30;99.90
45409;DHT22;31162;51.076;3.784;2023-12-20T00:49:56;6.40;99.90
45409;DHT22;31162;51.076;3.784;2023-12-20T00:52:21;6.30;99.90
45409;DHT22;31162;51.076;3.784;2023-12-20T00:54:48;6.20;99.90
45409;DHT22;31162;51.076;3.784;2023-12-20T00:57:14;6.20;99.90
45409;DHT22;31162;51.076;3.784;2023-12-20T00:59:39;6.20;99.90
45409;DHT22;31162;51.076;3.784;2023-12-20T01:02:05;6.30;99.90
45409;DHT22;31162;51.076;3.784;2023-12-20T01:04:31;6.30;99.90
45409;DHT22;31162;51.076;3.784;2023-12-20T01:06:56;6.40;99.90
45409;DHT22;31162;51.076;3.784;2023-12-20T01:09:22;6.50;99.90
45409;DHT22;31162;51.076;3.784;2023-12-20T01:11:55;6.50;99.90
45409;DHT22;31162;51.076;3.784;2023-12-20T01:14:20;6.50;99.90
45409;DHT22;31162;51.076;3.784;2023-12-20T01:16:47;6.50;99.90
45409;DHT22;31162;51.076;3.784;2023-12-20T01:19:13;6.40;99.90
45409;DHT22;31162;51.076;3.784;2023-12-20T01:21:40;6.40;99.90
45409;DHT22;31162;51.076;3.784;2023-12-20T01:24:05;6.50;99.90
45409;DHT22;31162;51.076;3.784;2023-12-20T01:26:31;6.60;99.90
45409;DHT22;31162;51.076;3.784;2023-12-20T01:28:57;6.80;99.90
45409;DHT22;31162;51.076;3.784;2023-12-20T01:31:22;6.80;99.90
45409;DHT22;31162;51.076;3.784;2023-12-20T01:33:48;6.90;99.90
45409;DHT22;31162;51.076;3.784;2023-12-20T01:36:14;6.80;99.90
45409;DHT22;31162;51.076;3.784;2023-12-20T01:38:40;6.80;99.90
45409;DHT22;31162;51.076;3.784;2023-12-20T01:41:05;6.80;99.90
45409;DHT22;31162;51.076;3.784;2023-12-20T01:43:31;6.80;99.90
45409;DHT22;31162;51.076;3.784;2023-12-20T01:45:57;6.80;99.90
45409;DHT22;31162;51.076;3.784;2023-12-20T01:48:24;7.00;99.90
45409;DHT22;31162;51.076;3.784;2023-12-20T01:50:51;7.00;99.90
45409;DHT22;31162;51.076;3.784;2023-12-20T01:53:17;7.10;99.90
45409;DHT22;31162;51.076;3.784;2023-12-20T01:55:44;7.10;99.90
45409;DHT22;31162;51.076;3.784;2023-12-20T01:58:11;7.20;99.90
45409;DHT22;31162;51.076;3.784;2023-12-20T02:00:37;7.30;99.90
45409;DHT22;31162;51.076;3.784;2023-12-20T02:03:04;7.20;99.90
45409;DHT22;31162;51.076;3.784;2023-12-20T02:05:31;7.20;99.90
45409;DHT22;31162;51.076;3.784;2023-12-20T02:07:57;7.30;99.90
45409;DHT22;31162;51.076;3.784;2023-12-20T02:10:24;7.40;99.90
45409;DHT22;31162;51.076;3.784;2023-12-20T02:12:50;7.40;99.90
45409;DHT22;31162;51.076;3.784;2023-12-20T02:15:15;7.30;99.90
45409;DHT22;31162;51.076;3.784;2023-12-20T02:17:42;7.30;99.90
45409;DHT22;31162;51.076;3.784;2023-12-20T02:20:08;7.20;99.90
45409;DHT22;31162;51.076;3.784;2023-12-20T02:22:34;7.30;99.90
45409;DHT22;31162;51.076;3.784;2023-12-20T02:24:59;7.40;99.90
45409;DHT22;31162;51.076;3.784;2023-12-20T02:27:25;7.50;99.90
45409;DHT22;31162;51.076;3.784;2023-12-20T02:29:51;7.50;99.90
45409;DHT22;31162;51.076;3.784;2023-12-20T02:32:17;7.40;99.90
45409;DHT22;31162;51.076;3.784;2023-12-20T02:34:43;7.50;99.90
45409;DHT22;31162;51.076;3.784;2023-12-20T02:37:09;7.50;99.90
45409;DHT22;31162;51.076;3.784;2023-12-20T02:39:35;7.50;99.90
45409;DHT22;31162;51.076;3.784;2023-12-20T02:42:00;7.50;99.90
45409;DHT22;31162;51.076;3.784;2023-12-20T02:44:26;7.60;99.90
45409;DHT22;31162;51.076;3.784;2023-12-20T02:46:52;7.60;99.90
45409;DHT22;31162;51.076;3.784;2023-12-20T02:49:17;7.50;99.90
45409;DHT22;31162;51.076;3.784;2023-12-20T02:51:43;7.50;99.90
45409;DHT22;31162;51.076;3.784;2023-12-20T02:54:09;7.60;99.90
45409;DHT22;31162;51.076;3.784;2023-12-20T02:56:35;7.60;99.90
45409;DHT22;31162;51.076;3.784;2023-12-20T02:59:00;7.60;99.90
45409;DHT22;31162;51.076;3.784;2023-12-20T03:01:27;7.70;99.90
45409;DHT22;31162;51.076;3.784;2023-12-20T03:03:53;7.60;99.90
45409;DHT22;31162;51.076;3.784;2023-12-20T03:06:19;7.60;99.90
45409;DHT22;31162;51.076;3.784;2023-12-20T03:08:45;7.60;99.90
45409;DHT22;31162;51.076;3.784;2023-12-20T03:11:11;7.50;99.90
45409;DHT22;31162;51.076;3.784;2023-12-20T03:13:37;7.60;99.90
45409;DHT22;31162;51.076;3.784;2023-12-20T03:16:09;7.60;99.90
45409;DHT22;31162;51.076;3.784;2023-12-20T03:18:35;7.60;99.90
45409;DHT22;31162;51.076;3.784;2023-12-20T03:21:01;7.50;99.90
45409;DHT22;31162;51.076;3.784;2023-12-20T03:23:27;7.50;99.90
45409;DHT22;31162;51.076;3.784;2023-12-20T03:25:52;7.50;99.90
45409;DHT22;31162;51.076;3.784;2023-12-20T03:28:19;7.40;99.90
45409;DHT22;31162;51.076;3.784;2023-12-20T03:30:45;7.50;99.90
45409;DHT22;31162;51.076;3.784;2023-12-20T03:33:10;7.60;99.90
45409;DHT22;31162;51.076;3.784;2023-12-20T03:35:36;7.70;99.90
45409;DHT22;31162;51.076;3.784;2023-12-20T03:38:02;7.80;99.90
45409;DHT22;31162;51.076;3.784;2023-12-20T03:40:28;7.80;99.90
45409;DHT22;31162;51.076;3.784;2023-12-20T03:42:53;7.60;99.90
45409;DHT22;31162;51.076;3.784;2023-12-20T03:45:19;7.80;99.90
45409;DHT22;31162;51.076;3.784;2023-12-20T03:47:45;7.80;99.90
45409;DHT22;31162;51.076;3.784;2023-12-20T03:50:10;7.80;99.90
45409;DHT22;31162;51.076;3.784;2023-12-20T03:52:36;7.90;99.90
45409;DHT22;31162;51.076;3.784;2023-12-20T03:55:02;7.90;99.90
45409;DHT22;31162;51.076;3.784;2023-12-20T03:57:27;8.00;99.90
45409;DHT22;31162;51.076;3.784;2023-12-20T03:59:53;8.10;99.90
45409;DHT22;31162;51.076;3.784;2023-12-20T04:02:19;7.90;99.90
45409;DHT22;31162;51.076;3.784;2023-12-20T04:04:44;7.80;99.90
45409;DHT22;31162;51.076;3.784;2023-12-20T04:07:10;7.80;99.90
45409;DHT22;31162;51.076;3.784;2023-12-20T04:09:36;7.90;99.90
45409;DHT22;31162;51.076;3.784;2023-12-20T04:12:01;8.00;99.90
45409;DHT22;31162;51.076;3.784;2023-12-20T04:14:27;8.00;99.90
45409;DHT22;31162;51.076;3.784;2023-12-20T04:16:53;8.00;99.90
45409;DHT22;31162;51.076;3.784;2023-12-20T04:19:19;7.90;99.90
45409;DHT22;31162;51.076;3.784;2023-12-20T04:21:44;8.00;99.90
45409;DHT22;31162;51.076;3.784;2023-12-20T04:24:10;8.00;99.90
45409;DHT22;31162;51.076;3.784;2023-12-20T04:26:35;8.00;99.90
45409;DHT22;31162;51.076;3.784;2023-12-20T04:29:01;8.10;99.90
45409;DHT22;31162;51.076;3.784;2023-12-20T04:31:27;8.00;99.90
45409;DHT22;31162;51.076;3.784;2023-12-20T04:33:53;7.90;99.90
45409;DHT22;31162;51.076;3.784;2023-12-20T04:36:18;7.90;99.90
45409;DHT22;31162;51.076;3.784;2023-12-20T04:38:44;7.90;99.90
45409;DHT22;31162;51.076;3.784;2023-12-20T04:41:09;7.80;99.90
45409;DHT22;31162;51.076;3.784;2023-12-20T04:43:35;7.90;99.90
45409;DHT22;31162;51.076;3.784;2023-12-20T04:46:01;7.80;99.90
45409;DHT22;31162;51.076;3.784;2023-12-20T04:48:28;7.70;99.90
45409;DHT22;31162;51.076;3.784;2023-12-20T04:50:53;7.60;99.90
45409;DHT22;31162;51.076;3.784;2023-12-20T04:53:19;7.50;99.90
45409;DHT22;31162;51.076;3.784;2023-12-20T04:55:45;7.50;99.90
45409;DHT22;31162;51.076;3.784;2023-12-20T04:58:10;7.50;99.90
45409;DHT22;31162;51.076;3.784;2023-12-20T05:00:36;7.40;99.90
45409;DHT22;31162;51.076;3.784;2023-12-20T05:03:01;7.40;99.90
45409;DHT22;31162;51.076;3.784;2023-12-20T05:05:27;7.40;99.90
45409;DHT22;31162;51.076;3.784;2023-12-20T05:07:53;7.30;99.90
45409;DHT22;31162;51.076;3.784;2023-12-20T05:10:18;7.20;99.90
45409;DHT22;31162;51.076;3.784;2023-12-20T05:12:44;7.20;99.90
45409;DHT22;31162;51.076;3.784;2023-12-20T05:15:09;7.30;99.90
45409;DHT22;31162;51.076;3.784;2023-12-20T05:17:35;7.30;99.90
45409;DHT22;31162;51.076;3.784;2023-12-20T05:20:01;7.40;99.90
45409;DHT22;31162;51.076;3.784;2023-12-20T05:22:27;7.50;99.90
45409;DHT22;31162;51.076;3.784;2023-12-20T05:24:53;7.50;99.90
45409;DHT22;31162;51.076;3.784;2023-12-20T05:27:18;7.60;99.90
45409;DHT22;31162;51.076;3.784;2023-12-20T05:29:44;7.60;99.90
45409;DHT22;31162;51.076;3.784;2023-12-20T05:32:10;7.60;99.90
45409;DHT22;31162;51.076;3.784;2023-12-20T05:34:35;7.60;99.90
45409;DHT22;31162;51.076;3.784;2023-12-20T05:37:02;7.70;99.90
45409;DHT22;31162;51.076;3.784;2023-12-20T05:39:27;7.60;99.90
45409;DHT22;31162;51.076;3.784;2023-12-20T05:41:53;7.60;99.90
45409;DHT22;31162;51.076;3.784;2023-12-20T05:44:19;7.50;99.90
45409;DHT22;31162;51.076;3.784;2023-12-20T05:46:45;7.50;99.90
45409;DHT22;31162;51.076;3.784;2023-12-20T05:49:10;7.60;99.90
45409;DHT22;31162;51.076;3.784;2023-12-20T05:51:36;7.60;99.90
45409;DHT22;31162;51.076;3.784;2023-12-20T05:54:02;7.70;99.90
45409;DHT22;31162;51.076;3.784;2023-12-20T05:56:28;7.60;99.90
45409;DHT22;31162;51.076;3.784;2023-12-20T05:58:53;7.50;99.90
45409;DHT22;31162;51.076;3.784;2023-12-20T06:01:19;7.30;99.90
45409;DHT22;31162;51.076;3.784;2023-12-20T06:03:44;7.20;99.90
45409;DHT22;31162;51.076;3.784;2023-12-20T06:06:11;7.20;99.90
45409;DHT22;31162;51.076;3.784;2023-12-20T06:08:38;7.10;99.90
45409;DHT22;31162;51.076;3.784;2023-12-20T06:11:04;7.00;99.90
45409;DHT22;31162;51.076;3.784;2023-12-20T06:13:30;6.90;99.90
45409;DHT22;31162;51.076;3.784;2023-12-20T06:15:56;6.90;99.90
45409;DHT22;31162;51.076;3.784;2023-12-20T06:18:22;7.00;99.90
45409;DHT22;31162;51.076;3.784;2023-12-20T06:20:48;6.80;99.90
45409;DHT22;31162;51.076;3.784;2023-12-20T06:23:14;6.70;99.90
45409;DHT22;31162;51.076;3.784;2023-12-20T06:25:39;6.80;99.90
45409;DHT22;31162;51.076;3.784;2023-12-20T06:28:05;6.80;99.90
45409;DHT22;31162;51.076;3.784;2023-12-20T06:30:31;6.90;99.90
45409;DHT22;31162;51.076;3.784;2023-12-20T06:32:58;6.90;99.90
45409;DHT22;31162;51.076;3.784;2023-12-20T06:35:24;6.90;99.90
45409;DHT22;31162;51.076;3.784;2023-12-20T06:37:50;6.80;99.90
45409;DHT22;31162;51.076;3.784;2023-12-20T06:40:16;6.80;99.90
45409;DHT22;31162;51.076;3.784;2023-12-20T06:42:42;6.70;99.90
45409;DHT22;31162;51.076;3.784;2023-12-20T06:45:08;6.70;99.90
45409;DHT22;31162;51.076;3.784;2023-12-20T06:47:34;6.70;99.90
45409;DHT22;31162;51.076;3.784;2023-12-20T06:50:00;6.60;99.90
45409;DHT22;31162;51.076;3.784;2023-12-20T06:52:26;6.60;99.90
45409;DHT22;31162;51.076;3.784;2023-12-20T06:54:52;6.60;99.90
45409;DHT22;31162;51.076;3.784;2023-12-20T06:57:17;6.50;99.90
45409;DHT22;31162;51.076;3.784;2023-12-20T06:59:45;6.40;99.90
45409;DHT22;31162;51.076;3.784;2023-12-20T07:02:11;6.40;99.90
45409;DHT22;31162;51.076;3.784;2023-12-20T07:04:40;6.30;99.90
45409;DHT22;31162;51.076;3.784;2023-12-20T07:07:06;6.30;99.90
45409;DHT22;31162;51.076;3.784;2023-12-20T07:09:33;6.30;99.90
45409;DHT22;31162;51.076;3.784;2023-12-20T07:11:58;6.20;99.90
45409;DHT22;31162;51.076;3.784;2023-12-20T07:14:24;6.20;99.90
45409;DHT22;31162;51.076;3.784;2023-12-20T07:16:50;6.10;99.90
45409;DHT22;31162;51.076;3.784;2023-12-20T07:19:15;6.10;99.90
45409;DHT22;31162;51.076;3.784;2023-12-20T07:21:41;6.10;99.90
45409;DHT22;31162;51.076;3.784;2023-12-20T07:24:06;6.10;99.90
45409;DHT22;31162;51.076;3.784;2023-12-20T07:26:32;6.10;99.90
45409;DHT22;31162;51.076;3.784;2023-12-20T07:28:59;6.10;99.90
45409;DHT22;31162;51.076;3.784;2023-12-20T07:31:25;6.10;99.90
45409;DHT22;31162;51.076;3.784;2023-12-20T07:33:50;6.20;99.90
45409;DHT22;31162;51.076;3.784;2023-12-20T07:36:16;6.20;99.90
45409;DHT22;31162;51.076;3.784;2023-12-20T07:38:42;6.20;99.90
45409;DHT22;31162;51.076;3.784;2023-12-20T07:41:10;6.20;99.90
45409;DHT22;31162;51.076;3.784;2023-12-20T07:43:36;6.30;99.90
45409;DHT22;31162;51.076;3.784;2023-12-20T07:46:08;6.40;99.90
45409;DHT22;31162;51.076;3.784;2023-12-20T07:48:37;6.50;99.90
45409;DHT22;31162;51.076;3.784;2023-12-20T07:51:04;6.60;99.90
45409;DHT22;31162;51.076;3.784;2023-12-20T07:53:32;6.50;99.90
45409;DHT22;31162;51.076;3.784;2023-12-20T07:55:58;6.50;99.90
45409;DHT22;31162;51.076;3.784;2023-12-20T07:58:23;6.50;99.90
45409;DHT22;31162;51.076;3.784;2023-12-20T08:00:49;6.50;99.90
45409;DHT22;31162;51.076;3.784;2023-12-20T08:03:15;6.40;99.90
45409;DHT22;31162;51.076;3.784;2023-12-20T08:05:41;6.30;99.90
45409;DHT22;31162;51.076;3.784;2023-12-20T08:08:07;6.30;99.90
45409;DHT22;31162;51.076;3.784;2023-12-20T08:10:32;6.30;99.90
45409;DHT22;31162;51.076;3.784;2023-12-20T08:12:58;6.30;99.90
45409;DHT22;31162;51.076;3.784;2023-12-20T08:15:24;6.20;99.90
45409;DHT22;31162;51.076;3.784;2023-12-20T08:17:49;6.30;99.90
45409;DHT22;31162;51.076;3.784;2023-12-20T08:20:18;6.30;99.90
45409;DHT22;31162;51.076;3.784;2023-12-20T08:22:44;6.40;99.90
45409;DHT22;31162;51.076;3.784;2023-12-20T08:25:09;6.30;99.90
45409;DHT22;31162;51.076;3.784;2023-12-20T08:27:40;6.30;99.90
45409;DHT22;31162;51.076;3.784;2023-12-20T08:30:08;6.40;99.90
45409;DHT22;31162;51.076;3.784;2023-12-20T08:32:34;6.40;99.90
45409;DHT22;31162;51.076;3.784;2023-12-20T08:35:00;6.50;99.90
45409;DHT22;31162;51.076;3.784;2023-12-20T08:37:26;6.50;99.90
45409;DHT22;31162;51.076;3.784;2023-12-20T08:39:51;6.60;99.90
45409;DHT22;31162;51.076;3.784;2023-12-20T08:42:17;6.60;99.90
45409;DHT22;31162;51.076;3.784;2023-12-20T08:44:42;6.70;99.90
45409;DHT22;31162;51.076;3.784;2023-12-20T08:47:08;6.60;99.90
45409;DHT22;31162;51.076;3.784;2023-12-20T08:49:38;6.70;99.90
45409;DHT22;31162;51.076;3.784;2023-12-20T08:52:04;6.80;99.90
45409;DHT22;31162;51.076;3.784;2023-12-20T08:54:30;6.90;99.90
45409;DHT22;31162;51.076;3.784;2023-12-20T08:56:56;7.00;99.90
45409;DHT22;31162;51.076;3.784;2023-12-20T08:59:21;7.10;99.90
45409;DHT22;31162;51.076;3.784;2023-12-20T09:01:47;7.10;99.90
45409;DHT22;31162;51.076;3.784;2023-12-20T09:04:13;7.10;99.90
45409;DHT22;31162;51.076;3.784;2023-12-20T09:06:39;7.10;99.90
45409;DHT22;31162;51.076;3.784;2023-12-20T09:09:05;7.20;99.90
45409;DHT22;31162;51.076;3.784;2023-12-20T09:11:31;7.20;99.90
45409;DHT22;31162;51.076;3.784;2023-12-20T09:13:57;7.40;99.90
45409;DHT22;31162;51.076;3.784;2023-12-20T09:16:22;7.70;99.90
45409;DHT22;31162;51.076;3.784;2023-12-20T09:18:48;7.90;99.90
45409;DHT22;31162;51.076;3.784;2023-12-20T09:21:14;8.00;99.90
45409;DHT22;31162;51.076;3.784;2023-12-20T09:23:39;8.00;99.90
45409;DHT22;31162;51.076;3.784;2023-12-20T09:26:05;7.90;99.90
45409;DHT22;31162;51.076;3.784;2023-12-20T09:28:31;7.80;99.90
45409;DHT22;31162;51.076;3.784;2023-12-20T09:31:01;7.90;99.90
45409;DHT22;31162;51.076;3.784;2023-12-20T09:33:26;7.80;99.90
45409;DHT22;31162;51.076;3.784;2023-12-20T09:35:52;7.80;99.90
45409;DHT22;31162;51.076;3.784;2023-12-20T09:38:18;8.00;99.90
45409;DHT22;31162;51.076;3.784;2023-12-20T09:40:43;8.30;99.90
45409;DHT22;31162;51.076;3.784;2023-12-20T09:43:14;8.30;99.90
45409;DHT22;31162;51.076;3.784;2023-12-20T09:45:42;8.40;99.90
45409;DHT22;31162;51.076;3.784;2023-12-20T09:48:11;8.60;99.90
45409;DHT22;31162;51.076;3.784;2023-12-20T09:50:37;8.70;99.90
45409;DHT22;31162;51.076;3.784;2023-12-20T09:53:05;8.80;99.90
45409;DHT22;31162;51.076;3.784;2023-12-20T09:55:36;8.80;99.90
45409;DHT22;31162;51.076;3.784;2023-12-20T09:58:02;9.00;99.90
45409;DHT22;31162;51.076;3.784;2023-12-20T10:00:27;9.00;99.90
45409;DHT22;31162;51.076;3.784;2023-12-20T10:02:57;9.10;99.90
45409;DHT22;31162;51.076;3.784;2023-12-20T10:05:31;9.20;99.90
45409;DHT22;31162;51.076;3.784;2023-12-20T10:07:58;9.20;99.90
45409;DHT22;31162;51.076;3.784;2023-12-20T10:10:24;9.10;99.90
45409;DHT22;31162;51.076;3.784;2023-12-20T10:13:07;9.10;99.90
45409;DHT22;31162;51.076;3.784;2023-12-20T10:15:34;9.00;99.90
45409;DHT22;31162;51.076;3.784;2023-12-20T10:18:01;8.90;99.90
45409;DHT22;31162;51.076;3.784;2023-12-20T10:20:27;9.00;99.90
45409;DHT22;31162;51.076;3.784;2023-12-20T10:22:55;9.00;99.90
45409;DHT22;31162;51.076;3.784;2023-12-20T10:25:21;9.10;99.90
45409;DHT22;31162;51.076;3.784;2023-12-20T10:27:47;9.10;99.90
45409;DHT22;31162;51.076;3.784;2023-12-20T10:30:13;9.10;99.90
45409;DHT22;31162;51.076;3.784;2023-12-20T10:32:39;9.10;99.90
45409;DHT22;31162;51.076;3.784;2023-12-20T10:35:06;9.10;99.90
45409;DHT22;31162;51.076;3.784;2023-12-20T10:37:35;9.10;99.90
45409;DHT22;31162;51.076;3.784;2023-12-20T10:40:03;9.10;99.90
45409;DHT22;31162;51.076;3.784;2023-12-20T10:42:30;9.00;99.90
45409;DHT22;31162;51.076;3.784;2023-12-20T10:44:58;9.00;99.90
45409;DHT22;31162;51.076;3.784;2023-12-20T10:47:25;9.00;99.90
45409;DHT22;31162;51.076;3.784;2023-12-20T10:49:52;9.00;99.90
45409;DHT22;31162;51.076;3.784;2023-12-20T10:52:19;9.00;99.90
45409;DHT22;31162;51.076;3.784;2023-12-20T10:54:48;9.00;99.90
45409;DHT22;31162;51.076;3.784;2023-12-20T10:57:14;9.00;99.90
45409;DHT22;31162;51.076;3.784;2023-12-20T10:59:41;8.90;99.90
45409;DHT22;31162;51.076;3.784;2023-12-20T11:02:08;9.10;99.90
45409;DHT22;31162;51.076;3.784;2023-12-20T11:04:40;9.20;99.90
45409;DHT22;31162;51.076;3.784;2023-12-20T11:10:00;9.30;99.90
45409;DHT22;31162;51.076;3.784;2023-12-20T11:12:49;9.30;99.90
45409;DHT22;31162;51.076;3.784;2023-12-20T11:15:17;9.30;99.90
45409;DHT22;31162;51.076;3.784;2023-12-20T11:17:45;9.50;99.90
45409;DHT22;31162;51.076;3.784;2023-12-20T11:20:11;9.60;99.90
45409;DHT22;31162;51.076;3.784;2023-12-20T11:22:38;9.70;99.90
45409;DHT22;31162;51.076;3.784;2023-12-20T11:25:10;9.70;99.90
45409;DHT22;31162;51.076;3.784;2023-12-20T11:27:43;9.70;99.90
45409;DHT22;31162;51.076;3.784;2023-12-20T11:30:09;9.70;99.90
45409;DHT22;31162;51.076;3.784;2023-12-20T11:32:36;9.70;99.90
45409;DHT22;31162;51.076;3.784;2023-12-20T11:35:17;9.80;99.90
45409;DHT22;31162;51.076;3.784;2023-12-20T11:37:44;9.80;99.90
45409;DHT22;31162;51.076;3.784;2023-12-20T11:40:17;9.80;99.90
45409;DHT22;31162;51.076;3.784;2023-12-20T11:42:49;9.80;99.90
45409;DHT22;31162;51.076;3.784;2023-12-20T11:45:23;9.80;99.90
45409;DHT22;31162;51.076;3.784;2023-12-20T11:47:51;9.80;99.90
45409;DHT22;31162;51.076;3.784;2023-12-20T11:50:20;9.70;99.90
45409;DHT22;31162;51.076;3.784;2023-12-20T11:52:47;9.80;99.90
45409;DHT22;31162;51.076;3.784;2023-12-20T11:55:13;9.90;99.90
45409;DHT22;31162;51.076;3.784;2023-12-20T11:57:39;10.00;99.90
45409;DHT22;31162;51.076;3.784;2023-12-20T12:00:05;10.00;99.90
45409;DHT22;31162;51.076;3.784;2023-12-20T12:02:31;9.90;99.90
45409;DHT22;31162;51.076;3.784;2023-12-20T12:04:57;10.00;99.90
45409;DHT22;31162;51.076;3.784;2023-12-20T12:07:24;10.00;99.90
45409;DHT22;31162;51.076;3.784;2023-12-20T12:09:50;10.00;99.90
45409;DHT22;31162;51.076;3.784;2023-12-20T12:12:16;9.80;99.90
45409;DHT22;31162;51.076;3.784;2023-12-20T12:14:44;9.80;99.90
45409;DHT22;31162;51.076;3.784;2023-12-20T12:17:14;9.80;99.90
45409;DHT22;31162;51.076;3.784;2023-12-20T12:19:40;9.90;99.90
45409;DHT22;31162;51.076;3.784;2023-12-20T12:24:52;9.70;99.90
45409;DHT22;31162;51.076;3.784;2023-12-20T12:27:17;9.70;99.90
45409;DHT22;31162;51.076;3.784;2023-12-20T12:30:01;9.80;99.90
45409;DHT22;31162;51.076;3.784;2023-12-20T12:32:28;10.00;99.90
45409;DHT22;31162;51.076;3.784;2023-12-20T12:34:53;10.20;99.90
45409;DHT22;31162;51.076;3.784;2023-12-20T12:37:19;10.40;99.90
45409;DHT22;31162;51.076;3.784;2023-12-20T12:39:46;10.70;99.90
45409;DHT22;31162;51.076;3.784;2023-12-20T12:42:12;10.90;99.90
45409;DHT22;31162;51.076;3.784;2023-12-20T12:44:37;11.20;99.90
45409;DHT22;31162;51.076;3.784;2023-12-20T12:47:03;11.30;99.90
45409;DHT22;31162;51.076;3.784;2023-12-20T12:49:29;11.40;99.90
45409;DHT22;31162;51.076;3.784;2023-12-20T12:51:55;11.50;99.90
45409;DHT22;31162;51.076;3.784;2023-12-20T12:54:23;11.30;99.90
45409;DHT22;31162;51.076;3.784;2023-12-20T12:56:49;11.00;99.90
45409;DHT22;31162;51.076;3.784;2023-12-20T12:59:16;10.90;99.90
45409;DHT22;31162;51.076;3.784;2023-12-20T13:01:41;10.80;99.90
45409;DHT22;31162;51.076;3.784;2023-12-20T13:04:09;10.80;99.90
45409;DHT22;31162;51.076;3.784;2023-12-20T13:06:39;10.70;99.90
45409;DHT22;31162;51.076;3.784;2023-12-20T13:09:06;10.60;99.90
45409;DHT22;31162;51.076;3.784;2023-12-20T13:11:33;10.60;99.90
45409;DHT22;31162;51.076;3.784;2023-12-20T13:13:58;10.70;99.90
45409;DHT22;31162;51.076;3.784;2023-12-20T13:16:24;10.70;99.90
45409;DHT22;31162;51.076;3.784;2023-12-20T13:18:50;10.80;99.90
45409;DHT22;31162;51.076;3.784;2023-12-20T13:21:16;10.90;99.90
45409;DHT22;31162;51.076;3.784;2023-12-20T13:23:42;11.00;99.90
45409;DHT22;31162;51.076;3.784;2023-12-20T13:26:08;11.10;99.90
45409;DHT22;31162;51.076;3.784;2023-12-20T13:28:33;11.20;99.90
45409;DHT22;31162;51.076;3.784;2023-12-20T13:30:59;11.20;99.90
45409;DHT22;31162;51.076;3.784;2023-12-20T13:33:25;11.30;99.90
45409;DHT22;31162;51.076;3.784;2023-12-20T13:35:51;11.20;99.90
45409;DHT22;31162;51.076;3.784;2023-12-20T13:38:17;11.10;99.90
45409;DHT22;31162;51.076;3.784;2023-12-20T13:40:43;11.00;99.90
45409;DHT22;31162;51.076;3.784;2023-12-20T13:43:08;10.90;99.90
45409;DHT22;31162;51.076;3.784;2023-12-20T13:45:35;10.90;99.90
45409;DHT22;31162;51.076;3.784;2023-12-20T13:48:01;10.90;99.90
45409;DHT22;31162;51.076;3.784;2023-12-20T13:50:28;10.80;99.90
45409;DHT22;31162;51.076;3.784;2023-12-20T13:52:54;10.80;99.90
45409;DHT22;31162;51.076;3.784;2023-12-20T13:55:20;10.70;99.90
45409;DHT22;31162;51.076;3.784;2023-12-20T13:57:50;10.80;99.90
45409;DHT22;31162;51.076;3.784;2023-12-20T14:00:16;10.80;99.90
45409;DHT22;31162;51.076;3.784;2023-12-20T14:02:42;10.70;99.90
45409;DHT22;31162;51.076;3.784;2023-12-20T14:05:09;10.70;99.90
45409;DHT22;31162;51.076;3.784;2023-12-20T14:07:36;10.70;99.90
45409;DHT22;31162;51.076;3.784;2023-12-20T14:10:02;10.70;99.90
45409;DHT22;31162;51.076;3.784;2023-12-20T14:12:27;10.70;99.90
45409;DHT22;31162;51.076;3.784;2023-12-20T14:14:53;10.70;99.90
45409;DHT22;31162;51.076;3.784;2023-12-20T14:17:21;10.70;99.90
45409;DHT22;31162;51.076;3.784;2023-12-20T14:19:47;10.70;99.90
45409;DHT22;31162;51.076;3.784;2023-12-20T14:22:12;10.70;99.90
45409;DHT22;31162;51.076;3.784;2023-12-20T14:24:42;10.60;99.90
45409;DHT22;31162;51.076;3.784;2023-12-20T14:27:08;10.60;99.90
45409;DHT22;31162;51.076;3.784;2023-12-20T14:29:34;10.60;99.90
45409;DHT22;31162;51.076;3.784;2023-12-20T14:32:00;10.60;99.90
45409;DHT22;31162;51.076;3.784;2023-12-20T14:34:28;10.60;99.90
45409;DHT22;31162;51.076;3.784;2023-12-20T14:36:53;10.60;99.90
45409;DHT22;31162;51.076;3.784;2023-12-20T14:39:19;10.60;99.90
45409;DHT22;31162;51.076;3.784;2023-12-20T14:41:45;10.70;99.90
45409;DHT22;31162;51.076;3.784;2023-12-20T14:44:10;10.70;99.90
45409;DHT22;31162;51.076;3.784;2023-12-20T14:46:36;10.70;99.90
45409;DHT22;31162;51.076;3.784;2023-12-20T14:49:03;10.70;99.90
45409;DHT22;31162;51.076;3.784;2023-12-20T14:51:30;10.70;99.90
45409;DHT22;31162;51.076;3.784;2023-12-20T14:53:56;10.60;99.90
45409;DHT22;31162;51.076;3.784;2023-12-20T14:56:23;10.60;99.90
45409;DHT22;31162;51.076;3.784;2023-12-20T14:58:52;10.50;99.90
45409;DHT22;31162;51.076;3.784;2023-12-20T15:01:17;10.50;99.90
45409;DHT22;31162;51.076;3.784;2023-12-20T15:03:47;10.60;99.90
45409;DHT22;31162;51.076;3.784;2023-12-20T15:06:12;10.40;99.90
45409;DHT22;31162;51.076;3.784;2023-12-20T15:08:38;10.40;99.90
45409;DHT22;31162;51.076;3.784;2023-12-20T15:11:04;10.40;99.90
45409;DHT22;31162;51.076;3.784;2023-12-20T15:13:29;10.40;99.90
45409;DHT22;31162;51.076;3.784;2023-12-20T15:15:58;10.40;99.90
45409;DHT22;31162;51.076;3.784;2023-12-20T15:18:24;10.40;99.90
45409;DHT22;31162;51.076;3.784;2023-12-20T15:20:49;10.50;99.90
45409;DHT22;31162;51.076;3.784;2023-12-20T15:23:16;10.50;99.90
45409;DHT22;31162;51.076;3.784;2023-12-20T15:25:42;10.50;99.90
45409;DHT22;31162;51.076;3.784;2023-12-20T15:28:08;10.40;99.90
45409;DHT22;31162;51.076;3.784;2023-12-20T15:30:34;10.40;99.90
45409;DHT22;31162;51.076;3.784;2023-12-20T15:33:01;10.40;99.90
45409;DHT22;31162;51.076;3.784;2023-12-20T15:35:28;10.40;99.90
45409;DHT22;31162;51.076;3.784;2023-12-20T15:37:54;10.30;99.90
45409;DHT22;31162;51.076;3.784;2023-12-20T15:40:19;10.30;99.90
45409;DHT22;31162;51.076;3.784;2023-12-20T15:42:45;10.20;99.90